Time;durP1;ratioP1;P1;durP2;ratioP2;P2;SDS_P1;SDS_P2;PMS_P1;PMS_P2;Temp;Humidity;BMP_temperature;BMP_pressure;BME280_temperature;BME280_humidity;BME280_pressure;Samples;Min_cycle;Max_cycle;Signal;HPM_P1;HPM_P2
2023/06/28 00:06:19;;;;;;;8.95;2.67;;;;;;;14.71;71.27;101061.03;15715997;28;20447;-50
2023/06/28 00:13:54;;;;;;;715.53;63.90;;;;;;;14.67;70.89;101054.44;15736036;28;20086;-49
2023/06/28 00:21:27;;;;;;;5.50;2.65;;;;;;;14.90;69.71;101056.41;15721027;28;20047;-50
2023/06/28 00:29:02;;;;;;;7.75;2.90;;;;;;;14.97;69.87;101070.66;15733648;28;20114;-54
2023/06/28 00:36:34;;;;;;;8.80;2.80;;;;;;;14.48;71.09;101064.47;15713854;28;20047;-49
2023/06/28 00:44:11;;;;;;;5.80;2.97;;;;;;;14.86;69.81;101079.53;15720995;28;20040;-48
2023/06/28 00:51:48;;;;;;;8.68;2.97;;;;;;;15.08;69.06;101064.44;15727232;28;20103;-52
2023/06/28 00:59:23;;;;;;;11.82;3.25;;;;;;;14.33;71.82;101078.34;15718521;28;20400;-49
2023/06/28 01:06:59;;;;;;;10.18;3.60;;;;;;;14.76;69.70;101075.50;15722777;28;20477;-49
2023/06/28 01:14:36;;;;;;;10.02;3.30;;;;;;;14.91;69.56;101085.06;15733571;28;20130;-52
2023/06/28 01:22:12;;;;;;;8.15;3.13;;;;;;;14.60;70.40;101084.28;15735992;28;20056;-52
2023/06/28 01:29:53;;;;;;;9.27;2.90;;;;;;;14.60;70.07;101083.44;15714182;28;20070;-52
2023/06/28 01:37:26;;;;;;;10.93;3.58;;;;;;;14.46;70.33;101091.69;15712419;28;20131;-54
2023/06/28 01:45:00;;;;;;;9.15;3.20;;;;;;;14.67;70.07;101097.69;15719715;28;20040;-54
2023/06/28 01:52:33;;;;;;;8.75;3.28;;;;;;;14.69;69.63;101090.19;15724028;28;20104;-53
2023/06/28 02:00:10;;;;;;;10.10;3.25;;;;;;;14.38;71.39;101093.88;15717400;28;20110;-51
2023/06/28 02:07:56;;;;;;;11.48;3.60;;;;;;;14.81;69.28;101091.03;15719223;28;20044;-51
2023/06/28 02:15:30;;;;;;;11.15;3.47;;;;;;;14.25;70.86;101084.88;15714359;28;20062;-53
2023/06/28 02:23:03;;;;;;;8.85;3.63;;;;;;;14.19;71.69;101074.97;15714792;28;20132;-49
2023/06/28 02:30:39;;;;;;;10.77;3.47;;;;;;;13.87;72.74;101066.19;15716806;28;20091;-50
2023/06/28 02:38:12;;;;;;;10.20;3.40;;;;;;;14.20;71.01;101076.63;15698241;28;20068;-49
2023/06/28 02:45:46;;;;;;;14.10;3.55;;;;;;;14.20;70.93;101075.81;15711757;28;20045;-47
2023/06/28 02:53:19;;;;;;;11.38;3.50;;;;;;;13.97;72.16;101076.47;15720527;28;20427;-48
2023/06/28 03:00:54;;;;;;;9.90;3.50;;;;;;;14.22;71.84;101073.69;15727924;28;20044;-48
2023/06/28 03:08:26;;;;;;;7.82;3.20;;;;;;;14.02;72.26;101071.22;15747637;28;20053;-47
2023/06/28 03:16:00;;;;;;;12.38;3.15;;;;;;;13.98;72.51;101070.03;15706619;28;20080;-52
2023/06/28 03:23:35;;;;;;;11.82;3.67;;;;;;;14.24;71.70;101075.13;15725375;28;20052;-49
2023/06/28 03:31:09;;;;;;;8.57;3.13;;;;;;;14.35;71.55;101080.81;15719083;28;20366;-52
2023/06/28 03:38:42;;;;;;;9.18;3.10;;;;;;;14.31;71.51;101080.44;15719468;28;20537;-46
2023/06/28 03:46:19;;;;;;;10.05;3.50;;;;;;;14.75;70.30;101089.25;15723093;28;20037;-44
2023/06/28 03:53:52;;;;;;;10.10;3.42;;;;;;;15.02;68.96;101084.31;15713436;28;20146;-49
2023/06/28 04:01:27;;;;;;;10.73;3.17;;;;;;;14.85;69.91;101104.91;15724741;28;20036;-44
2023/06/28 04:09:00;;;;;;;13.23;3.35;;;;;;;14.82;70.05;101102.66;15743098;28;20051;-45
2023/06/28 04:16:35;;;;;;;10.48;3.58;;;;;;;14.85;70.31;101100.34;15719262;28;20053;-47
2023/06/28 04:24:08;;;;;;;13.98;3.83;;;;;;;14.78;69.68;101097.75;15737485;28;20048;-46
2023/06/28 04:31:42;;;;;;;11.57;3.00;;;;;;;14.91;69.55;101109.41;15734566;28;20056;-44
2023/06/28 04:39:17;;;;;;;11.00;3.67;;;;;;;14.49;70.66;101118.25;15733667;28;20056;-43
2023/06/28 04:46:52;;;;;;;5.95;3.22;;;;;;;14.78;70.25;101116.66;15740652;28;20050;-45
2023/06/28 04:54:24;;;;;;;11.15;3.30;;;;;;;15.14;69.54;101133.81;15742490;28;20044;-47
2023/06/28 05:01:59;;;;;;;9.40;4.83;;;;;;;15.17;69.60;101140.66;15737397;28;20068;-51
2023/06/28 05:09:33;;;;;;;1012.45;148.35;;;;;;;15.24;68.66;101131.34;15730830;28;20078;-49
2023/06/28 05:17:07;;;;;;;11.00;3.35;;;;;;;15.51;67.80;101133.66;15734602;28;20048;-46
2023/06/28 05:24:41;;;;;;;302.20;18.02;;;;;;;15.72;67.18;101135.00;15714959;28;20485;-48
2023/06/28 05:32:15;;;;;;;14.75;3.20;;;;;;;15.66;67.13;101144.03;15724023;28;20118;-43
2023/06/28 05:39:48;;;;;;;5.45;2.60;;;;;;;15.36;68.33;101142.22;15730551;28;20094;-43
2023/06/28 05:47:23;;;;;;;10.40;2.95;;;;;;;15.89;67.85;101130.53;15730785;28;20049;-48
2023/06/28 05:54:56;;;;;;;13.00;2.80;;;;;;;16.36;66.54;101130.47;15718560;28;20053;-47
2023/06/28 06:02:30;;;;;;;9.90;2.30;;;;;;;17.02;64.19;101128.25;15740752;28;20114;-48
2023/06/28 06:10:03;;;;;;;10.65;2.53;;;;;;;16.61;65.17;101132.91;15745569;28;20064;-47
2023/06/28 06:17:37;;;;;;;51.53;3.85;;;;;;;17.18;63.89;101129.38;15713268;28;20081;-44
2023/06/28 06:25:10;;;;;;;1057.90;111.28;;;;;;;17.52;62.49;101125.59;15750010;28;20059;-45
2023/06/28 06:32:44;;;;;;;7.43;2.35;;;;;;;17.77;61.79;101140.69;15739455;28;20083;-44
2023/06/28 06:40:17;;;;;;;6.93;2.20;;;;;;;17.87;61.30;101140.03;15713672;28;20039;-47
2023/06/28 06:47:51;;;;;;;7.55;1.95;;;;;;;17.75;60.16;101135.50;15724765;28;20047;-48
2023/06/28 06:55:26;;;;;;;6.13;1.95;;;;;;;18.20;59.21;101150.00;15744722;28;20090;-44
2023/06/28 07:03:00;;;;;;;8.45;1.98;;;;;;;18.32;59.21;101153.41;15748688;28;20048;-43
2023/06/28 07:10:33;;;;;;;7.25;1.77;;;;;;;18.13;57.59;101157.50;15739547;28;20098;-48
2023/06/28 07:18:08;;;;;;;5.00;1.90;;;;;;;19.23;55.71;101169.19;15721594;28;20473;-46
2023/06/28 07:25:42;;;;;;;6.90;1.77;;;;;;;18.98;54.88;101159.69;15734614;28;20048;-55
2023/06/28 07:33:17;;;;;;;8.43;1.90;;;;;;;18.34;57.05;101152.09;15719509;28;20452;-46
2023/06/28 07:40:51;;;;;;;7.65;1.65;;;;;;;19.71;56.67;101160.09;15727253;28;20068;-47
2023/06/28 07:48:25;;;;;;;4.60;1.73;;;;;;;21.00;48.87;101151.50;15720644;28;20131;-44
2023/06/28 07:55:58;;;;;;;6.47;2.05;;;;;;;20.21;49.58;101166.97;15738133;28;20105;-46
2023/06/28 08:03:33;;;;;;;3.88;1.63;;;;;;;19.82;51.03;101164.56;15745578;28;20184;-43
2023/06/28 08:11:05;;;;;;;4.93;1.30;;;;;;;20.24;52.51;101171.91;15721667;28;20531;-45
2023/06/28 08:18:40;;;;;;;4.68;1.70;;;;;;;20.10;50.76;101176.19;15741810;28;20048;-49
2023/06/28 08:26:13;;;;;;;7.85;1.65;;;;;;;19.56;51.67;101173.56;15727546;28;20414;-55
2023/06/28 08:33:47;;;;;;;4.63;1.40;;;;;;;19.05;53.81;101178.53;15719007;28;20047;-45
2023/06/28 08:41:20;;;;;;;5.03;1.50;;;;;;;19.43;52.44;101171.28;15698656;28;20052;-44
2023/06/28 08:48:55;;;;;;;54.58;4.03;;;;;;;20.02;51.18;101173.94;15684277;28;20083;-51
2023/06/28 08:56:28;;;;;;;3.80;1.20;;;;;;;20.14;47.35;101174.56;15719348;28;20114;-46
2023/06/28 09:04:05;;;;;;;5.32;1.42;;;;;;;20.67;48.38;101163.69;15739934;28;20666;-45
2023/06/28 09:11:38;;;;;;;7.57;1.63;;;;;;;20.72;51.22;101164.50;15739020;28;20454;-46
2023/06/28 09:19:13;;;;;;;5.38;1.30;;;;;;;21.24;46.14;101182.66;15695483;28;20446;-50
2023/06/28 09:26:47;;;;;;;5.85;1.25;;;;;;;21.48;48.45;101174.78;15725096;28;20060;-49
2023/06/28 09:34:23;;;;;;;5.80;1.30;;;;;;;21.60;45.52;101163.59;15740962;28;20075;-55
2023/06/28 09:41:56;;;;;;;4.20;1.42;;;;;;;22.36;45.60;101166.22;15738023;28;20048;-48
2023/06/28 09:49:34;;;;;;;7.88;1.23;;;;;;;22.55;43.98;101166.44;15725131;28;20094;-50
2023/06/28 09:57:10;;;;;;;4.97;1.45;;;;;;;21.76;45.38;101167.97;15749826;28;20124;-53
2023/06/28 10:04:44;;;;;;;3.85;1.20;;;;;;;23.13;41.78;101171.38;15734895;28;20047;-50
2023/06/28 10:12:19;;;;;;;4.00;1.27;;;;;;;23.02;44.34;101164.31;15737657;28;20116;-50
2023/06/28 10:19:55;;;;;;;5.53;1.30;;;;;;;23.51;42.65;101169.72;15729890;28;20500;-52
2023/06/28 10:27:29;;;;;;;4.32;1.23;;;;;;;23.48;42.17;101159.31;15742607;28;20464;-49
2023/06/28 10:35:07;;;;;;;5.25;1.20;;;;;;;22.99;45.74;101168.44;15728949;28;20056;-51
2023/06/28 10:42:41;;;;;;;4.05;1.30;;;;;;;23.78;41.64;101160.19;15732243;28;20045;-55
2023/06/28 10:50:21;;;;;;;6.32;1.25;;;;;;;23.78;40.17;101158.28;15731921;28;20063;-51
2023/06/28 10:58:07;;;;;;;5.38;1.48;;;;;;;24.60;42.17;101157.41;15735782;28;20048;-49
2023/06/28 11:05:53;;;;;;;8.05;1.60;;;;;;;23.65;44.79;101162.50;15736979;28;20135;-52
2023/06/28 11:13:32;;;;;;;7.63;1.40;;;;;;;24.07;41.71;101168.41;15756704;28;20683;-50
2023/06/28 11:21:14;;;;;;;5.32;1.33;;;;;;;24.54;40.48;101164.06;15735732;28;20098;-50
2023/06/28 11:28:51;;;;;;;25.50;3.47;;;;;;;24.15;41.82;101170.50;15729568;28;20036;-53
2023/06/28 11:36:26;;;;;;;4.30;1.30;;;;;;;23.85;41.52;101166.16;15736245;28;20638;-50
2023/06/28 11:44:03;;;;;;;3.72;1.20;;;;;;;24.79;39.59;101168.41;15752966;28;20094;-51
2023/06/28 11:51:38;;;;;;;2.97;1.30;;;;;;;25.10;40.81;101161.41;15718879;28;20643;-49
2023/06/28 11:59:14;;;;;;;3.47;1.10;;;;;;;23.87;40.10;101170.22;15756881;28;20044;-51
2023/06/28 12:06:49;;;;;;;3.75;1.30;;;;;;;24.33;40.33;101177.16;15701241;28;20076;-53
2023/06/28 12:14:22;;;;;;;4.22;1.25;;;;;;;25.25;37.62;101165.84;15698703;28;20045;-56
2023/06/28 12:21:57;;;;;;;3.22;1.30;;;;;;;24.03;42.27;101164.63;15726721;28;20361;-54
2023/06/28 12:29:31;;;;;;;3.72;1.40;;;;;;;24.14;39.27;101158.72;15713330;28;20045;-55
2023/06/28 12:37:07;;;;;;;3.80;1.23;;;;;;;24.69;37.38;101161.94;15735389;28;20137;-52
2023/06/28 12:44:50;;;;;;;4.75;1.52;;;;;;;23.52;40.67;101156.84;15734086;28;20045;-55
2023/06/28 12:52:26;;;;;;;6.22;1.40;;;;;;;24.26;39.36;101166.56;15738006;28;20118;-54
2023/06/28 12:59:59;;;;;;;4.40;1.20;;;;;;;24.67;40.21;101158.69;15722904;28;20036;-53
2023/06/28 13:07:33;;;;;;;4.30;1.30;;;;;;;24.39;39.36;101165.88;15741632;28;20455;-54
2023/06/28 13:15:07;;;;;;;3.00;1.10;;;;;;;24.02;38.90;101166.53;15719263;28;20043;-56
2023/06/28 13:22:42;;;;;;;2.97;1.30;;;;;;;23.42;39.93;101160.47;15737913;28;20067;-51
2023/06/28 13:30:15;;;;;;;4.72;1.20;;;;;;;23.91;39.79;101175.97;15724934;28;20059;-53
2023/06/28 13:37:50;;;;;;;5.70;1.30;;;;;;;24.01;40.98;101164.88;15715962;28;20049;-53
2023/06/28 13:45:23;;;;;;;6.18;1.95;;;;;;;24.16;39.28;101156.53;15713886;28;20412;-52
2023/06/28 13:52:57;;;;;;;3.28;1.13;;;;;;;23.25;40.26;101144.44;15731242;28;20132;-53
2023/06/28 14:00:30;;;;;;;3.92;1.10;;;;;;;24.38;39.12;101157.94;15708116;28;20624;-53
2023/06/28 14:08:05;;;;;;;6.88;1.90;;;;;;;24.53;37.91;101152.28;15721990;28;20052;-52
2023/06/28 14:15:38;;;;;;;3.85;1.30;;;;;;;24.59;36.70;101148.34;15735337;28;20095;-51
2023/06/28 14:23:12;;;;;;;3.85;1.17;;;;;;;24.79;38.14;101143.69;15711404;28;20578;-53
2023/06/28 14:30:45;;;;;;;6.10;1.48;;;;;;;24.97;38.61;101150.31;15735110;28;20039;-54
2023/06/28 14:38:19;;;;;;;13.98;5.13;;;;;;;25.61;38.43;101146.03;15753489;28;20125;-50
2023/06/28 14:45:52;;;;;;;4.68;1.50;;;;;;;24.85;38.15;101145.25;15743747;28;20040;-55
2023/06/28 14:53:27;;;;;;;6.05;1.38;;;;;;;24.64;37.61;101147.47;15745530;28;20045;-47
2023/06/28 15:01:00;;;;;;;4.40;1.17;;;;;;;24.97;39.37;101136.56;15750441;28;20052;-52
2023/06/28 15:08:35;;;;;;;4.95;1.38;;;;;;;24.62;37.56;101139.53;15756912;28;20032;-54
2023/06/28 15:16:08;;;;;;;17.85;1.90;;;;;;;24.63;38.07;101149.41;15747934;28;20059;-53
2023/06/28 15:23:42;;;;;;;3.78;1.20;;;;;;;24.32;38.87;101148.09;15718017;28;20051;-51
2023/06/28 15:31:16;;;;;;;3.72;0.98;;;;;;;24.90;38.04;101146.00;15756207;28;20536;-53
2023/06/28 15:38:50;;;;;;;7.03;1.40;;;;;;;24.42;37.85;101142.53;15709309;22;20068;-54
2023/06/28 15:46:30;;;;;;;3.85;1.10;;;;;;;24.27;37.98;101143.50;15715044;28;20041;-46
2023/06/28 15:54:05;;;;;;;5.28;1.13;;;;;;;24.10;39.50;101141.19;15702224;28;20063;-49
2023/06/28 16:01:38;;;;;;;5.53;1.40;;;;;;;24.09;40.11;101142.31;15721153;28;20048;-47
2023/06/28 16:09:13;;;;;;;4.65;1.33;;;;;;;24.10;39.34;101132.16;15723682;28;20044;-52
2023/06/28 16:16:47;;;;;;;8.43;1.55;;;;;;;24.14;38.41;101139.50;15709906;28;20040;-45
2023/06/28 16:24:22;;;;;;;5.68;1.20;;;;;;;23.64;39.07;101128.00;15709655;28;20051;-47
2023/06/28 16:31:55;;;;;;;6.18;1.27;;;;;;;23.62;38.62;101135.63;15710905;28;20063;-48
2023/06/28 16:39:29;;;;;;;4.38;1.23;;;;;;;23.62;38.31;101137.56;15728834;28;20049;-45
2023/06/28 16:47:04;;;;;;;4.32;1.20;;;;;;;24.02;39.28;101146.53;15719484;28;20044;-56
2023/06/28 16:54:38;;;;;;;2.53;1.20;;;;;;;23.69;39.77;101138.09;15718130;28;20646;-45
2023/06/28 17:02:11;;;;;;;4.05;1.30;;;;;;;23.37;38.66;101144.09;15709728;28;20438;-51
2023/06/28 17:09:45;;;;;;;6.40;1.30;;;;;;;23.33;40.00;101153.97;15710164;28;20394;-52
2023/06/28 17:17:18;;;;;;;5.15;2.17;;;;;;;23.74;39.77;101159.97;15725098;28;20536;-48
2023/06/28 17:24:53;;;;;;;4.75;1.35;;;;;;;23.32;39.09;101152.34;15727257;28;20048;-47
2023/06/28 17:32:31;;;;;;;3.13;1.17;;;;;;;23.04;39.78;101162.94;15729423;28;20048;-50
2023/06/28 17:40:07;;;;;;;6.57;2.97;;;;;;;23.32;39.42;101152.34;15705686;28;20048;-49
2023/06/28 17:47:42;;;;;;;6.13;1.25;;;;;;;22.75;40.84;101153.75;15731918;28;20048;-47
2023/06/28 17:55:16;;;;;;;3.45;1.15;;;;;;;23.24;39.47;101156.50;15738002;28;20048;-53
2023/06/28 18:02:49;;;;;;;2.45;1.33;;;;;;;23.01;40.62;101170.88;15718379;28;20041;-50
2023/06/28 18:10:24;;;;;;;33.05;1.77;;;;;;;22.67;40.53;101171.59;15740693;28;20544;-46
2023/06/28 18:17:56;;;;;;;28.55;2.08;;;;;;;22.89;40.79;101171.22;15739524;28;20044;-47
2023/06/28 18:25:30;;;;;;;5.18;1.50;;;;;;;23.12;41.68;101173.25;15746809;28;20044;-53
2023/06/28 18:33:04;;;;;;;4.07;1.63;;;;;;;23.12;42.09;101170.53;15727523;28;20128;-47
2023/06/28 18:40:38;;;;;;;7.53;1.85;;;;;;;23.03;41.68;101172.22;15746037;28;20037;-48
2023/06/28 18:48:13;;;;;;;6.82;1.48;;;;;;;23.08;43.26;101174.97;15725578;28;20051;-48
2023/06/28 18:55:59;;;;;;;7.00;1.80;;;;;;;22.95;44.09;101169.28;15742089;28;20127;-51
2023/06/28 19:03:34;;;;;;;8.38;1.48;;;;;;;22.52;45.50;101182.56;15732832;28;20044;-52
2023/06/28 19:11:08;;;;;;;3.22;1.35;;;;;;;22.42;45.81;101189.72;15713913;28;20138;-48
2023/06/28 19:18:41;;;;;;;7.72;2.85;;;;;;;22.14;46.70;101193.91;15714204;28;20050;-47
2023/06/28 19:26:15;;;;;;;6.80;3.97;;;;;;;21.94;46.72;101204.84;15728301;28;20144;-48
2023/06/28 19:33:51;;;;;;;3.85;1.83;;;;;;;21.69;47.90;101207.59;15737501;28;20060;-53
2023/06/28 19:41:25;;;;;;;3.30;1.70;;;;;;;21.32;50.20;101216.84;15714395;28;20036;-48
2023/06/28 19:48:58;;;;;;;2.80;1.67;;;;;;;21.10;50.41;101215.13;15710548;28;20123;-49
2023/06/28 19:56:32;;;;;;;5.25;2.10;;;;;;;20.85;51.15;101221.31;15713309;28;20101;-47
2023/06/28 20:04:05;;;;;;;4.82;2.00;;;;;;;20.40;53.11;101221.88;15717715;28;20112;-51
2023/06/28 20:11:39;;;;;;;;;;;;;;;20.29;53.55;101233.81;15739622;28;20040;-46
2023/06/28 20:19:12;;;;;;;221.25;16.33;;;;;;;19.90;54.57;101235.97;15739190;28;19921;-45
2023/06/28 20:26:46;;;;;;;;;;;;;;;19.80;54.77;101234.81;15736866;28;20064;-46
2023/06/28 20:34:19;;;;;;;3.63;2.10;;;;;;;19.79;55.30;101232.34;15719514;28;20570;-46
2023/06/28 20:41:55;;;;;;;;;;;;;;;19.51;56.77;101239.69;15736826;28;20037;-52
2023/06/28 20:49:28;;;;;;;11.93;2.78;;;;;;;19.44;56.51;101240.97;15728091;28;20351;-47
2023/06/28 20:57:03;;;;;;;5.38;2.47;;;;;;;19.26;56.92;101244.91;15724392;28;20104;-52
2023/06/28 21:04:38;;;;;;;4.32;2.38;;;;;;;19.24;56.93;101252.47;15735931;28;20044;-49
2023/06/28 21:12:13;;;;;;;219.98;14.57;;;;;;;19.01;58.96;101248.94;15698886;28;20048;-47
2023/06/28 21:19:45;;;;;;;14.55;3.05;;;;;;;18.89;58.79;101247.44;15725654;28;20046;-47
2023/06/28 21:27:20;;;;;;;576.05;40.53;;;;;;;18.57;59.85;101242.66;15710240;28;20068;-50
2023/06/28 21:34:53;;;;;;;27.17;8.27;;;;;;;18.48;59.41;101244.97;15680354;23;20425;-50
2023/06/28 21:42:28;;;;;;;59.45;10.02;;;;;;;18.19;60.64;101248.91;15609843;28;20510;-49
2023/06/28 21:50:00;;;;;;;5.47;3.83;;;;;;;18.14;61.28;101246.06;15666399;28;20075;-53
2023/06/28 21:57:35;;;;;;;;;;;;;;;17.91;62.20;101253.34;15676638;28;20124;-51
2023/06/28 22:05:08;;;;;;;5.28;3.78;;;;;;;17.92;61.82;101251.44;15656707;28;19925;-50
2023/06/28 22:12:42;;;;;;;12.88;5.97;;;;;;;17.67;63.13;101262.66;15672314;28;20132;-49
2023/06/28 22:20:15;;;;;;;7.80;3.22;;;;;;;17.56;63.04;101267.91;15663878;28;20049;-49
2023/06/28 22:27:49;;;;;;;;;;;;;;;17.31;64.02;101276.41;15683386;28;20123;-48
2023/06/28 22:35:24;;;;;;;7.30;3.47;;;;;;;17.43;63.19;101262.78;15651952;28;20437;-55
2023/06/28 22:42:58;;;;;;;6.97;3.50;;;;;;;17.32;63.52;101277.22;15669192;28;20041;-47
2023/06/28 22:50:31;;;;;;;7.75;5.05;;;;;;;17.14;64.79;101266.56;15656943;28;20060;-48
2023/06/28 22:58:05;;;;;;;4.18;3.42;;;;;;;16.96;65.22;101278.38;15659396;28;20560;-47
2023/06/28 23:05:38;;;;;;;8.32;3.75;;;;;;;16.86;65.45;101273.56;15659368;28;20132;-49
2023/06/28 23:13:15;;;;;;;8.63;4.07;;;;;;;16.81;65.47;101268.06;15669192;28;20095;-49
2023/06/28 23:20:49;;;;;;;4.95;3.75;;;;;;;16.73;65.02;101269.22;15655100;28;20049;-48
2023/06/28 23:28:28;;;;;;;8.07;4.13;;;;;;;16.46;66.01;101274.31;15665009;28;20037;-47
2023/06/28 23:36:01;;;;;;;5.97;3.78;;;;;;;16.56;66.26;101263.69;15658987;28;20118;-48
2023/06/28 23:43:38;;;;;;;5.65;3.95;;;;;;;16.18;66.99;101264.19;15677288;28;20057;-49
2023/06/28 23:51:12;;;;;;;9.13;3.70;;;;;;;16.64;65.26;101273.34;15654876;28;20045;-46
2023/06/28 23:58:46;;;;;;;9.10;4.00;;;;;;;16.61;65.48;101273.00;15679311;28;20064;-49
